LOT3910 EPKK-EPWA
Flight info
| Callsign | LOT3910 |
|---|---|
| Flight time | 0h 29m |
| Altitude | 25000 |
| Route | POBOK M985 KOTEK M866 LOGDA |
| Aircraft | A319/M-SDE3FGHIRWY/LB1 |
Departure
| Time | 2026-05-07 17:36 |
|---|---|
| Airport | Kraków John Paul II International Airport (EPKK) |
Arrival
| Time | 2026-05-07 18:05 |
|---|---|
| Airport | Warsaw Chopin Airport (EPWA) |
| Time | Latitude | Longitude | Altitude | Speed | Heading |
|---|---|---|---|---|---|
| 2026-05-07 16:42 | 50.07469 | 19.80081 | 828 ft | 0 kts | 168° |
| 2026-05-07 17:26 | 50.07466 | 19.80082 | 800 ft | 1 kts | 168° |
| 2026-05-07 17:27 | 50.07457 | 19.80085 | 800 ft | 0 kts | 167° |
| 2026-05-07 17:27 | 50.07448 | 19.80089 | 800 ft | 3 kts | 165° |
| 2026-05-07 17:27 | 50.07428 | 19.80111 | 800 ft | 4 kts | 128° |
| 2026-05-07 17:27 | 50.07422 | 19.80156 | 800 ft | 4 kts | 91° |
| 2026-05-07 17:28 | 50.07427 | 19.80208 | 800 ft | 5 kts | 80° |
| 2026-05-07 17:28 | 50.07434 | 19.80270 | 800 ft | 6 kts | 78° |
| 2026-05-07 17:28 | 50.07448 | 19.80338 | 800 ft | 7 kts | 62° |
| 2026-05-07 17:28 | 50.07488 | 19.80384 | 800 ft | 8 kts | 21° |
| 2026-05-07 17:29 | 50.07542 | 19.80411 | 800 ft | 8 kts | 17° |
| 2026-05-07 17:29 | 50.07602 | 19.80416 | 800 ft | 9 kts | 353° |
| 2026-05-07 17:29 | 50.07667 | 19.80396 | 800 ft | 10 kts | 347° |
| 2026-05-07 17:29 | 50.07736 | 19.80371 | 800 ft | 11 kts | 347° |
| 2026-05-07 17:30 | 50.07811 | 19.80347 | 800 ft | 11 kts | 348° |
| 2026-05-07 17:30 | 50.07838 | 19.80338 | 799 ft | 0 kts | 348° |
| 2026-05-07 17:34 | 50.07840 | 19.80337 | 799 ft | 2 kts | 348° |
| 2026-05-07 17:34 | 50.07880 | 19.80324 | 796 ft | 9 kts | 348° |
| 2026-05-07 17:35 | 50.07953 | 19.80301 | 794 ft | 10 kts | 348° |
| 2026-05-07 17:35 | 50.08004 | 19.80255 | 795 ft | 9 kts | 305° |
| 2026-05-07 17:35 | 50.08006 | 19.80160 | 795 ft | 10 kts | 260° |
| 2026-05-07 17:35 | 50.07965 | 19.79861 | 794 ft | 66 kts | 258° |
| 2026-05-07 17:36 | 50.07813 | 19.78776 | 797 ft | 136 kts | 258° |
| 2026-05-07 17:36 | 50.07603 | 19.77135 | 1139 ft | 158 kts | 259° |
| 2026-05-07 17:36 | 50.07403 | 19.75472 | 1913 ft | 155 kts | 256° |
| 2026-05-07 17:36 | 50.07104 | 19.73881 | 2690 ft | 151 kts | 251° |
| 2026-05-07 17:37 | 50.06754 | 19.72455 | 3379 ft | 152 kts | 248° |
| 2026-05-07 17:37 | 50.06392 | 19.70745 | 3700 ft | 179 kts | 257° |
| 2026-05-07 17:37 | 50.06147 | 19.68724 | 4147 ft | 202 kts | 260° |
| 2026-05-07 17:37 | 50.05916 | 19.66436 | 4641 ft | 227 kts | 264° |
| 2026-05-07 17:38 | 50.06312 | 19.64015 | 5398 ft | 244 kts | 302° |
| 2026-05-07 17:38 | 50.07517 | 19.62373 | 5864 ft | 270 kts | 329° |
| 2026-05-07 17:38 | 50.09356 | 19.61419 | 6005 ft | 279 kts | 346° |
| 2026-05-07 17:38 | 50.11329 | 19.61115 | 6512 ft | 292 kts | 4° |
| 2026-05-07 17:39 | 50.13276 | 19.62006 | 7575 ft | 295 kts | 26° |
| 2026-05-07 17:39 | 50.15070 | 19.63591 | 8588 ft | 298 kts | 30° |
| 2026-05-07 17:39 | 50.16877 | 19.65232 | 9578 ft | 303 kts | 30° |
| 2026-05-07 17:39 | 50.18719 | 19.66912 | 10332 ft | 315 kts | 30° |
| 2026-05-07 17:40 | 50.20718 | 19.68627 | 10691 ft | 339 kts | 27° |
| 2026-05-07 17:40 | 50.22860 | 19.70339 | 11334 ft | 351 kts | 26° |
| 2026-05-07 17:40 | 50.25091 | 19.72067 | 12166 ft | 356 kts | 25° |
| 2026-05-07 17:40 | 50.27333 | 19.73797 | 13006 ft | 361 kts | 26° |
| 2026-05-07 17:41 | 50.29595 | 19.75556 | 13839 ft | 366 kts | 26° |
| 2026-05-07 17:41 | 50.31886 | 19.77359 | 14558 ft | 371 kts | 26° |
| 2026-05-07 17:41 | 50.34197 | 19.79191 | 15256 ft | 376 kts | 26° |
| 2026-05-07 17:41 | 50.36544 | 19.81055 | 15952 ft | 381 kts | 26° |
| 2026-05-07 17:42 | 50.38750 | 19.82809 | 16603 ft | 385 kts | 27° |
| 2026-05-07 17:42 | 50.41152 | 19.84723 | 17293 ft | 390 kts | 27° |
| 2026-05-07 17:42 | 50.43591 | 19.86667 | 17977 ft | 396 kts | 27° |
| 2026-05-07 17:42 | 50.46058 | 19.88636 | 18609 ft | 400 kts | 27° |
| 2026-05-07 17:43 | 50.48541 | 19.90620 | 18880 ft | 403 kts | 27° |
| 2026-05-07 17:43 | 50.51041 | 19.92625 | 18958 ft | 400 kts | 27° |
| 2026-05-07 17:43 | 50.53511 | 19.94605 | 18973 ft | 397 kts | 27° |
| 2026-05-07 17:43 | 50.55969 | 19.96571 | 18972 ft | 396 kts | 27° |
| 2026-05-07 17:44 | 50.58426 | 19.98542 | 18971 ft | 396 kts | 27° |
| 2026-05-07 17:44 | 50.60883 | 20.00518 | 18974 ft | 396 kts | 27° |
| 2026-05-07 17:44 | 50.63332 | 20.02494 | 18971 ft | 396 kts | 27° |
| 2026-05-07 17:44 | 50.65783 | 20.04472 | 18974 ft | 396 kts | 27° |
| 2026-05-07 17:45 | 50.68236 | 20.06451 | 18971 ft | 396 kts | 27° |
| 2026-05-07 17:45 | 50.70684 | 20.08428 | 18974 ft | 396 kts | 27° |
| 2026-05-07 17:45 | 50.73133 | 20.10411 | 18976 ft | 396 kts | 27° |
| 2026-05-07 17:45 | 50.75586 | 20.12395 | 18979 ft | 396 kts | 27° |
| 2026-05-07 17:46 | 50.78041 | 20.14382 | 18986 ft | 396 kts | 27° |
| 2026-05-07 17:46 | 50.80491 | 20.16370 | 18984 ft | 396 kts | 27° |
| 2026-05-07 17:46 | 50.82946 | 20.18362 | 18994 ft | 397 kts | 27° |
| 2026-05-07 17:46 | 50.85403 | 20.20361 | 18991 ft | 398 kts | 27° |
| 2026-05-07 17:47 | 50.87864 | 20.22365 | 18993 ft | 398 kts | 27° |
| 2026-05-07 17:47 | 50.90331 | 20.24372 | 18992 ft | 397 kts | 27° |
| 2026-05-07 17:47 | 50.92791 | 20.26377 | 18993 ft | 397 kts | 27° |
| 2026-05-07 17:47 | 50.95217 | 20.28358 | 19002 ft | 397 kts | 27° |
| 2026-05-07 17:48 | 50.97693 | 20.30384 | 18996 ft | 396 kts | 27° |
| 2026-05-07 17:48 | 51.00144 | 20.32393 | 18995 ft | 396 kts | 27° |
| 2026-05-07 17:48 | 51.02585 | 20.34405 | 18995 ft | 396 kts | 27° |
| 2026-05-07 17:48 | 51.04993 | 20.36387 | 18981 ft | 395 kts | 27° |
| 2026-05-07 17:49 | 51.07460 | 20.38432 | 18981 ft | 394 kts | 27° |
| 2026-05-07 17:49 | 51.09899 | 20.40447 | 18986 ft | 395 kts | 27° |
| 2026-05-07 17:49 | 51.12343 | 20.42463 | 18985 ft | 395 kts | 27° |
| 2026-05-07 17:49 | 51.14788 | 20.44477 | 18992 ft | 396 kts | 27° |
| 2026-05-07 17:50 | 51.17231 | 20.46492 | 18989 ft | 396 kts | 27° |
| 2026-05-07 17:50 | 51.19676 | 20.48513 | 18976 ft | 395 kts | 27° |
| 2026-05-07 17:50 | 51.22079 | 20.50502 | 18737 ft | 386 kts | 27° |
| 2026-05-07 17:50 | 51.24451 | 20.52467 | 18505 ft | 381 kts | 27° |
| 2026-05-07 17:51 | 51.26797 | 20.54414 | 18268 ft | 379 kts | 27° |
| 2026-05-07 17:51 | 51.29095 | 20.56320 | 18007 ft | 377 kts | 27° |
| 2026-05-07 17:51 | 51.30662 | 20.57620 | 17820 ft | 376 kts | 27° |
| 2026-05-07 17:51 | 51.33720 | 20.60163 | 17382 ft | 371 kts | 27° |
| 2026-05-07 17:52 | 51.35999 | 20.62062 | 16915 ft | 368 kts | 27° |
| 2026-05-07 17:52 | 51.37532 | 20.63341 | 16603 ft | 368 kts | 27° |
| 2026-05-07 17:52 | 51.39798 | 20.65232 | 16128 ft | 367 kts | 27° |
| 2026-05-07 17:52 | 51.42046 | 20.67117 | 15658 ft | 363 kts | 27° |
| 2026-05-07 17:53 | 51.44216 | 20.68936 | 15219 ft | 362 kts | 26° |
| 2026-05-07 17:53 | 51.46451 | 20.70801 | 14761 ft | 362 kts | 26° |
| 2026-05-07 17:53 | 51.48676 | 20.72661 | 14282 ft | 361 kts | 26° |
| 2026-05-07 17:53 | 51.50906 | 20.74538 | 13820 ft | 362 kts | 26° |
| 2026-05-07 17:54 | 51.53127 | 20.76414 | 13314 ft | 360 kts | 26° |
| 2026-05-07 17:54 | 51.55338 | 20.78281 | 12837 ft | 357 kts | 26° |
| 2026-05-07 17:54 | 51.57533 | 20.80134 | 12358 ft | 354 kts | 26° |
| 2026-05-07 17:54 | 51.59702 | 20.81964 | 11888 ft | 350 kts | 26° |
| 2026-05-07 17:55 | 51.61821 | 20.83755 | 11424 ft | 338 kts | 26° |
| 2026-05-07 17:55 | 51.63889 | 20.85503 | 10971 ft | 335 kts | 26° |
| 2026-05-07 17:55 | 51.65948 | 20.87240 | 10512 ft | 333 kts | 26° |
| 2026-05-07 17:55 | 51.67991 | 20.88968 | 10158 ft | 325 kts | 26° |
| 2026-05-07 17:56 | 51.69935 | 20.90617 | 9941 ft | 308 kts | 26° |
| 2026-05-07 17:56 | 51.71810 | 20.92211 | 9621 ft | 301 kts | 26° |
| 2026-05-07 17:56 | 51.73655 | 20.93782 | 9357 ft | 301 kts | 26° |
| 2026-05-07 17:56 | 51.75506 | 20.95357 | 8841 ft | 298 kts | 26° |
| 2026-05-07 17:57 | 51.77036 | 20.96661 | 8399 ft | 294 kts | 26° |
| 2026-05-07 17:57 | 51.78259 | 20.97705 | 8057 ft | 292 kts | 26° |
| 2026-05-07 17:57 | 51.80651 | 20.99742 | 7368 ft | 288 kts | 26° |
| 2026-05-07 17:57 | 51.82414 | 21.01251 | 6877 ft | 286 kts | 26° |
| 2026-05-07 17:58 | 51.82979 | 21.01737 | 6725 ft | 285 kts | 26° |
| 2026-05-07 17:58 | 51.84793 | 21.03291 | 6203 ft | 286 kts | 26° |
| 2026-05-07 17:58 | 51.86550 | 21.04796 | 5775 ft | 284 kts | 26° |
| 2026-05-07 17:58 | 51.88285 | 21.06284 | 5245 ft | 281 kts | 26° |
| 2026-05-07 17:59 | 51.89991 | 21.07748 | 4696 ft | 275 kts | 26° |
| 2026-05-07 17:59 | 51.91655 | 21.09174 | 4202 ft | 266 kts | 26° |
| 2026-05-07 17:59 | 51.93239 | 21.10537 | 4005 ft | 246 kts | 26° |
| 2026-05-07 17:59 | 51.94618 | 21.11724 | 3950 ft | 225 kts | 26° |
| 2026-05-07 18:00 | 51.95705 | 21.12581 | 3912 ft | 214 kts | 16° |
| 2026-05-07 18:00 | 51.97105 | 21.12914 | 3836 ft | 200 kts | 355° |
| 2026-05-07 18:00 | 51.98419 | 21.12469 | 3734 ft | 189 kts | 335° |
| 2026-05-07 18:00 | 51.99581 | 21.11514 | 3653 ft | 186 kts | 329° |
| 2026-05-07 18:01 | 52.00736 | 21.10502 | 3586 ft | 187 kts | 330° |
| 2026-05-07 18:01 | 52.01874 | 21.09511 | 3395 ft | 185 kts | 330° |
| 2026-05-07 18:01 | 52.02994 | 21.08541 | 3170 ft | 184 kts | 330° |
| 2026-05-07 18:01 | 52.04128 | 21.07556 | 2927 ft | 185 kts | 330° |
| 2026-05-07 18:02 | 52.06369 | 21.05606 | 2423 ft | 179 kts | 333° |
| 2026-05-07 18:02 | 52.07445 | 21.04670 | 2179 ft | 175 kts | 333° |
| 2026-05-07 18:02 | 52.08491 | 21.03760 | 1946 ft | 161 kts | 333° |
| 2026-05-07 18:03 | 52.09394 | 21.02973 | 1744 ft | 138 kts | 333° |
| 2026-05-07 18:03 | 52.10212 | 21.02261 | 1558 ft | 127 kts | 334° |
| 2026-05-07 18:03 | 52.10980 | 21.01593 | 1391 ft | 124 kts | 333° |
| 2026-05-07 18:03 | 52.11737 | 21.00933 | 1229 ft | 124 kts | 333° |
| 2026-05-07 18:04 | 52.12470 | 21.00295 | 1067 ft | 123 kts | 334° |
| 2026-05-07 18:04 | 52.13220 | 20.99641 | 910 ft | 122 kts | 333° |
| 2026-05-07 18:04 | 52.13972 | 20.98990 | 725 ft | 122 kts | 332° |
| 2026-05-07 18:04 | 52.14717 | 20.98328 | 581 ft | 122 kts | 331° |
| 2026-05-07 18:05 | 52.15462 | 20.97682 | 423 ft | 121 kts | 331° |
| 2026-05-07 18:05 | 52.16190 | 20.97058 | 346 ft | 111 kts | 329° |
| 2026-05-07 18:05 | 52.16735 | 20.96569 | 339 ft | 66 kts | 332° |
| 2026-05-07 18:05 | 52.16997 | 20.96344 | 336 ft | 23 kts | 332° |
| 2026-05-07 18:06 | 52.17108 | 20.96268 | 333 ft | 17 kts | 346° |
| 2026-05-07 18:06 | 52.17229 | 20.96243 | 334 ft | 18 kts | 358° |
| 2026-05-07 18:06 | 52.17338 | 20.96247 | 335 ft | 11 kts | 3° |
| 2026-05-07 18:06 | 52.17357 | 20.96250 | 337 ft | 0 kts | 7° |
| 2026-05-07 18:07 | 52.17360 | 20.96251 | 339 ft | 1 kts | 11° |
| 2026-05-07 18:07 | 52.17371 | 20.96256 | 336 ft | 2 kts | 16° |
| 2026-05-07 18:08 | 52.17387 | 20.96272 | 339 ft | 3 kts | 38° |
| 2026-05-07 18:08 | 52.17405 | 20.96305 | 336 ft | 5 kts | 44° |